Time,TemperatureF,DewpointF,PressureIn,WindDirection,WindDirectionDegrees,WindSpeedMPH,WindSpeedGustMPH,Humidity,HourlyPrecipIn,Conditions,Clouds,dailyrainin,SoftwareType,DateUTC
2013-04-10 00:11:00,49.4,45.0,30.14,SE,140,0.0,-999.0,85,-99.99,,,0.00,weatherlink.com 1.10,2013-04-10 07:11:00,
2013-04-10 00:26:00,49.1,45.0,30.14,SE,140,0.0,-999.0,87,-99.99,,,0.00,weatherlink.com 1.10,2013-04-10 07:26:00,
2013-04-10 00:41:00,47.9,45.0,30.14,SE,140,0.0,-999.0,90,-99.99,,,0.00,weatherlink.com 1.10,2013-04-10 07:41:00,
2013-04-10 00:56:00,47.3,45.0,30.14,SE,140,0.0,-999.0,91,-99.99,,,0.00,weatherlink.com 1.10,2013-04-10 07:56:00,
2013-04-10 02:26:00,46.8,44.0,30.13,SE,140,0.0,-999.0,91,-99.99,,,0.00,weatherlink.com 1.10,2013-04-10 09:26:00,
2013-04-10 02:56:00,45.7,44.0,30.13,SE,140,0.0,-999.0,94,-99.99,,,0.00,weatherlink.com 1.10,2013-04-10 09:56:00,
2013-04-10 03:56:00,44.9,44.0,30.12,SE,140,0.0,-999.0,97,-99.99,,,0.00,weatherlink.com 1.10,2013-04-10 10:56:00,
2013-04-10 04:26:00,46.2,45.0,30.12,SE,140,0.0,-999.0,97,-99.99,,,0.00,weatherlink.com 1.10,2013-04-10 11:26:00,
2013-04-10 04:41:00,46.5,46.0,30.11,SSE,150,0.0,-999.0,96,-99.99,,,0.00,weatherlink.com 1.10,2013-04-10 11:41:00,
2013-04-10 05:56:00,46.7,45.0,30.11,SSE,150,0.0,-999.0,95,-99.99,,,0.00,weatherlink.com 1.10,2013-04-10 12:56:00,
2013-04-10 06:56:00,46.8,46.0,30.11,SSE,150,0.0,-999.0,95,-99.99,,,0.00,weatherlink.com 1.10,2013-04-10 13:56:00,
2013-04-10 07:11:00,47.0,46.0,30.09,SSE,150,0.0,-999.0,95,-99.99,,,0.00,weatherlink.com 1.10,2013-04-10 14:11:00,
2013-04-10 07:26:00,47.3,46.0,30.09,SSE,150,0.0,-999.0,95,-99.99,,,0.00,weatherlink.com 1.10,2013-04-10 14:26:00,
2013-04-10 07:41:00,47.7,46.0,30.09,West,263,0.0,-999.0,95,-99.99,,,0.00,weatherlink.com 1.10,2013-04-10 14:41:00,
2013-04-10 07:56:00,48.5,47.0,30.09,West,265,0.0,-999.0,95,-99.99,,,0.00,weatherlink.com 1.10,2013-04-10 14:56:00,
2013-04-10 08:11:00,48.8,48.0,30.10,West,263,1.0,-999.0,95,-99.99,,,0.00,weatherlink.com 1.10,2013-04-10 15:11:00,
2013-04-10 08:25:00,49.2,48.0,30.09,West,263,0.0,-999.0,95,-99.99,,,0.00,weatherlink.com 1.10,2013-04-10 15:25:00,
2013-04-10 08:40:00,49.5,48.0,30.08,SW,225,0.0,-999.0,95,-99.99,,,0.00,weatherlink.com 1.10,2013-04-10 15:40:00,
2013-04-10 08:55:00,49.9,48.0,30.08,WSW,247,0.0,-999.0,93,-99.99,,,0.00,weatherlink.com 1.10,2013-04-10 15:55:00,
2013-04-10 09:10:00,49.9,48.0,30.09,West,267,0.0,-999.0,93,-99.99,,,0.00,weatherlink.com 1.10,2013-04-10 16:10:00,
2013-04-10 09:27:00,50.2,49.0,30.09,SE,142,0.0,-999.0,95,-99.99,,,0.00,weatherlink.com 1.10,2013-04-10 16:27:00,
2013-04-10 09:40:00,50.5,49.0,30.08,SSE,167,0.0,-999.0,94,-99.99,,,0.00,weatherlink.com 1.10,2013-04-10 16:40:00,
2013-04-10 09:55:00,50.7,49.0,30.07,SSE,167,0.0,-999.0,94,-99.99,,,0.00,weatherlink.com 1.10,2013-04-10 16:55:00,
2013-04-10 10:12:00,50.7,49.0,30.08,SSE,167,0.0,-999.0,93,-99.99,,,0.01,weatherlink.com 1.10,2013-04-10 17:12:00,
2013-04-10 10:26:00,50.7,49.0,30.09,SSW,207,0.0,-999.0,95,-99.99,,,0.03,weatherlink.com 1.10,2013-04-10 17:26:00,
2013-04-10 10:42:00,50.5,49.0,30.09,SSE,154,0.0,-999.0,96,-99.99,,,0.04,weatherlink.com 1.10,2013-04-10 17:42:00,
2013-04-10 10:56:00,50.5,50.0,30.09,North,360,0.0,-999.0,97,-99.99,,,0.04,weatherlink.com 1.10,2013-04-10 17:56:00,
2013-04-10 11:12:00,50.8,50.0,30.11,North,360,0.0,-999.0,97,-99.99,,,0.05,weatherlink.com 1.10,2013-04-10 18:12:00,
2013-04-10 11:27:00,51.3,51.0,30.11,NE,44,0.0,-999.0,97,-99.99,,,0.05,weatherlink.com 1.10,2013-04-10 18:27:00,
2013-04-10 11:56:00,52.0,52.0,30.11,ESE,119,0.0,-999.0,98,-99.99,,,0.05,weatherlink.com 1.10,2013-04-10 18:56:00,
2013-04-10 12:11:00,52.8,52.0,30.12,South,171,0.0,-999.0,98,-99.99,,,0.05,weatherlink.com 1.10,2013-04-10 19:11:00,
2013-04-10 12:25:00,54.7,54.0,30.11,WSW,249,0.0,-999.0,96,-99.99,,,0.05,weatherlink.com 1.10,2013-04-10 19:25:00,
2013-04-10 12:40:00,55.0,52.0,30.12,WSW,256,3.0,-999.0,90,-99.99,,,0.06,weatherlink.com 1.10,2013-04-10 19:40:00,
2013-04-10 12:57:00,55.0,53.0,30.12,West,280,3.0,-999.0,93,-99.99,,,0.06,weatherlink.com 1.10,2013-04-10 19:57:00,
2013-04-10 13:11:00,55.0,52.0,30.12,WNW,292,0.0,-999.0,89,-99.99,,,0.06,weatherlink.com 1.10,2013-04-10 20:11:00,
2013-04-10 13:26:00,55.0,52.0,30.13,West,264,9.0,-999.0,90,-99.99,,,0.06,weatherlink.com 1.10,2013-04-10 20:26:00,
2013-04-10 13:56:00,56.7,51.0,30.13,NW,314,1.0,-999.0,80,-99.99,,,0.06,weatherlink.com 1.10,2013-04-10 20:56:00,
2013-04-10 14:10:00,56.9,50.0,30.14,NW,304,2.0,-999.0,77,-99.99,,,0.06,weatherlink.com 1.10,2013-04-10 21:10:00,
2013-04-10 14:26:00,57.8,50.0,30.14,West,276,0.0,-999.0,74,-99.99,,,0.06,weatherlink.com 1.10,2013-04-10 21:26:00,
2013-04-10 14:40:00,58.0,52.0,30.14,WSW,250,0.0,-999.0,79,-99.99,,,0.06,weatherlink.com 1.10,2013-04-10 21:40:00,
2013-04-10 14:57:00,58.1,49.0,30.14,WSW,239,4.0,-999.0,73,-99.99,,,0.06,weatherlink.com 1.10,2013-04-10 21:57:00,
2013-04-10 15:12:00,59.2,50.0,30.14,West,267,1.0,-999.0,72,-99.99,,,0.06,weatherlink.com 1.10,2013-04-10 22:12:00,
2013-04-10 15:27:00,58.9,50.0,30.15,NW,321,0.0,-999.0,72,-99.99,,,0.06,weatherlink.com 1.10,2013-04-10 22:27:00,
2013-04-10 15:40:00,58.7,51.0,30.15,WNW,296,5.0,-999.0,76,-99.99,,,0.06,weatherlink.com 1.10,2013-04-10 22:40:00,
2013-04-10 15:57:00,58.1,50.0,30.15,SSW,194,5.0,-999.0,75,-99.99,,,0.06,weatherlink.com 1.10,2013-04-10 22:57:00,
2013-04-10 16:11:00,58.6,48.0,30.15,SW,236,6.0,-999.0,69,-99.99,,,0.06,weatherlink.com 1.10,2013-04-10 23:11:00,
2013-04-10 16:27:00,58.4,48.0,30.14,NNW,333,5.0,-999.0,69,-99.99,,,0.06,weatherlink.com 1.10,2013-04-10 23:27:00,
2013-04-10 16:41:00,58.1,47.0,30.14,WNW,288,7.0,-999.0,67,-99.99,,,0.06,weatherlink.com 1.10,2013-04-10 23:41:00,
2013-04-10 16:55:00,58.1,47.0,30.14,WSW,244,5.0,-999.0,66,-99.99,,,0.06,weatherlink.com 1.10,2013-04-10 23:55:00,
2013-04-10 17:12:00,57.6,46.0,30.14,West,273,7.0,-999.0,65,-99.99,,,0.06,weatherlink.com 1.10,2013-04-11 00:12:00,
2013-04-10 17:26:00,57.0,45.0,30.13,NW,324,1.0,-999.0,65,-99.99,,,0.06,weatherlink.com 1.10,2013-04-11 00:26:00,
2013-04-10 17:41:00,57.2,46.0,30.14,WSW,252,4.0,-999.0,66,-99.99,,,0.06,weatherlink.com 1.10,2013-04-11 00:41:00,
2013-04-10 18:12:00,55.0,44.0,30.14,WNW,301,9.0,-999.0,66,-99.99,,,0.06,weatherlink.com 1.10,2013-04-11 01:12:00,
2013-04-10 18:26:00,54.4,44.0,30.14,WNW,295,2.0,-999.0,68,-99.99,,,0.06,weatherlink.com 1.10,2013-04-11 01:26:00,
2013-04-10 18:41:00,53.6,44.0,30.14,WNW,287,2.0,-999.0,69,-99.99,,,0.06,weatherlink.com 1.10,2013-04-11 01:41:00,
2013-04-10 18:57:00,52.3,43.0,30.14,WNW,298,3.0,-999.0,71,-99.99,,,0.06,weatherlink.com 1.10,2013-04-11 01:57:00,
2013-04-10 19:11:00,51.1,42.0,30.14,West,279,2.0,-999.0,70,-99.99,,,0.06,weatherlink.com 1.10,2013-04-11 02:11:00,
2013-04-10 19:57:00,48.3,41.0,30.16,WNW,288,0.0,-999.0,77,-99.99,,,0.06,weatherlink.com 1.10,2013-04-11 02:57:00,
2013-04-10 20:10:00,47.6,41.0,30.17,WNW,290,0.0,-999.0,79,-99.99,,,0.06,weatherlink.com 1.10,2013-04-11 03:10:00,
2013-04-10 20:55:00,46.0,40.0,30.18,SW,229,7.0,-999.0,80,-99.99,,,0.06,weatherlink.com 1.10,2013-04-11 03:55:00,
2013-04-10 21:11:00,46.0,40.0,30.19,NNW,329,1.0,-999.0,79,-99.99,,,0.06,weatherlink.com 1.10,2013-04-11 04:11:00,
2013-04-10 21:26:00,44.9,40.0,30.20,WNW,285,2.0,-999.0,82,-99.99,,,0.06,weatherlink.com 1.10,2013-04-11 04:26:00,
2013-04-10 21:41:00,45.2,39.0,30.21,WNW,298,0.0,-999.0,79,-99.99,,,0.06,weatherlink.com 1.10,2013-04-11 04:41:00,
2013-04-10 22:11:00,45.2,38.0,30.23,WNW,302,0.0,-999.0,77,-99.99,,,0.06,weatherlink.com 1.10,2013-04-11 05:11:00,
2013-04-10 22:41:00,44.1,38.0,30.23,WNW,291,0.0,-999.0,80,-99.99,,,0.06,weatherlink.com 1.10,2013-04-11 05:41:00,
2013-04-10 22:55:00,43.6,38.0,30.24,WNW,290,0.0,-999.0,82,-99.99,,,0.06,weatherlink.com 1.10,2013-04-11 05:55:00,
2013-04-10 23:11:00,43.5,38.0,30.24,West,270,0.0,-999.0,82,-99.99,,,0.06,weatherlink.com 1.10,2013-04-11 06:11:00,
2013-04-10 23:26:00,43.2,39.0,30.24,West,270,0.0,-999.0,84,-99.99,,,0.06,weatherlink.com 1.10,2013-04-11 06:26:00,
2013-04-10 23:41:00,42.3,39.0,30.24,West,270,0.0,-999.0,87,-99.99,,,0.06,weatherlink.com 1.10,2013-04-11 06:41:00,
2013-04-10 23:56:00,41.8,39.0,30.24,West,270,0.0,-999.0,89,-99.99,,,0.06,weatherlink.com 1.10,2013-04-11 06:56:00,